• Join FlightAware (Why Join?)
  • Login
  • US Flag 
12:32PM EDT


 

Airport Tracker/Info


-or-


 

Live Flight TrackerFlight Track Log ✈ AWE4748 ✈ 28-Oct-2013 ✈ KMHT - KPHL

Flight Track Log - Related Links

Times and Time Zones

All times are in EDT time to prevent confusion due to time zone crossing. See the AWE4748 flight status page for this flight to view local times or setup timezone preferences in your user account.

Time Position Orientation Groundspeed Altitude Reporting Facility
EDT Latitude Longitude Course Direction KTS MPH feet Rate Location/Type
01:38PM 42.9167 -71.4500 200° South 147 169 1,100  Level KA90
01:40PM 42.9333 -71.5000 294° West 220 253 3,500 2,100 Climbing KA90
01:41PM 42.7318 -71.7021 144° Southeast  Level Estimated
01:41PM 43.0000 -71.5000 360° North 271 312 6,200  Level KA90
01:42PM 42.6647 -71.7905 202° Southwest  Level Estimated
01:42PM 43.0333 -71.4000 65° Northeast 316 364 8,900  Level KA90
01:43PM 42.6897 -71.6681 74° East  Level FlightAware Approximate
01:44PM 42.6234 -71.7576 200° South  Level Estimated
01:44PM 43.0581 -71.1389 83° East 348 400 11,200  Level Boston Center
01:45PM 43.0692 -70.9875 84° East 378 435 13,500 2,040 Climbing Boston Center
01:46PM 42.9944 -70.8958 138° Southeast 366 421 15,500 1,860 Climbing Boston Center
01:47PM 42.9100 -70.9200 192° South 311 358 17,300 1,620 Climbing Boston Center
01:48PM 42.8278 -70.9583 199° South 311 358 18,900 1,380 Climbing Boston Center
01:49PM 42.7581 -70.9922 200° South 301 346 20,200 1,320 Climbing Boston Center
01:50PM 42.6581 -71.0397 199° South 317 365 21,600 1,500 Climbing Boston Center
01:51PM 42.5742 -71.0811 200° South 319 367 23,300 1,440 Climbing Boston Center
01:52PM 42.4925 -71.1194 199° South 314 361 24,600 1,140 Climbing Boston Center
01:53PM 42.4131 -71.1631 202° Southwest 311 358 25,700 840 Climbing Boston Center
01:54PM 42.3442 -71.2319 216° Southwest 309 356 26,300 540 Climbing Boston Center
01:55PM 42.2767 -71.2986 216° Southwest 321 369 26,800 480 Climbing Boston Center
01:56PM 42.1992 -71.3739 216° Southwest 338 389 27,300 540 Climbing Boston Center
01:57PM 42.1047 -71.4675 216° Southwest 350 403 27,900 480 Climbing Boston Center
01:58PM 42.0250 -71.5450 216° Southwest 354 407 28,400 480 Climbing Boston Center
01:59PM 41.9436 -71.6253 216° Southwest 360 414 28,900 480 Climbing Boston Center
02:00PM 41.8611 -71.7047 216° Southwest 363 418 29,400 480 Climbing Boston Center
02:01PM 41.7783 -71.7836 215° Southwest 364 419 29,900 240 Climbing Boston Center
02:02PM 41.6953 -71.8650 216° Southwest 367 422 30,000  Climbing Boston Center
02:03PM 41.6075 -71.9478 215° Southwest 379 436 30,000  Level Boston Center
02:04PM 41.5167 -72.0369 216° Southwest 390 449 30,000  Level Boston Center
02:05PM 41.4278 -72.1214 215° Southwest 392 451 30,000  Level Boston Center
02:06PM 41.3369 -72.2083 216° Southwest 399 459 30,000  Level Boston Center
02:07PM 41.2289 -72.3108 216° Southwest 405 466 30,000  Level Boston Center
02:08PM 41.1353 -72.3994 215° Southwest 407 468 30,000  Level Boston Center
02:09PM 41.0461 -72.4842 216° Southwest 404 465 30,000 -60 Level Boston Center
02:10PM 40.9547 -72.5725 216° Southwest 402 463 29,900 -540 Descending Boston Center
02:11PM 40.8614 -72.6469 211° Southwest 413 475 29,000 -960 Descending Boston Center
02:12PM 40.7489 -72.6008 163° South 428 493 28,000 -1,140 Descending Boston Center
02:13PM 40.6372 -72.5414 158° South 425 489 26,700 -1,380 Descending Boston Center
02:14PM 40.5306 -72.5469 182° South 396 456 25,200 -1,500 Descending Boston Center
02:15PM 40.4631 -72.6400 226° Southwest 357 411 23,700 -1,500 Descending Boston Center
02:17PM 40.4047 -72.7381 232° Southwest 345 397 22,200 -1,440 Descending Boston Center
02:18PM 40.3475 -72.8367 233° Southwest 341 392 20,800 -1,140 Descending Boston Center
02:18PM 40.2814 -72.9450 231° Southwest 346 398 20,000 -480 Descending New York Center
02:19PM 40.2253 -73.0408 233° Southwest 341 392 20,000  Level New York Center
02:20PM 40.1631 -73.1339 229° Southwest 341 392 20,000 -180 Level New York Center
02:21PM 40.1028 -73.2322 231° Southwest 341 392 19,700 -420 Descending New York Center
02:22PM 40.0531 -73.3064 229° Southwest 341 392 19,200 -660 Descending New York Center
02:23PM 39.9797 -73.4203 230° Southwest 346 398 18,400 -600 Descending New York Center
02:24PM 39.9236 -73.5100 231° Southwest 351 404 18,000 -600 Descending New York Center
02:25PM 39.8628 -73.6050 230° Southwest 351 404 17,300 -720 Descending New York Center
02:26PM 39.8044 -73.6972 231° Southwest 346 398 16,600 -780 Descending New York Center
02:27PM 39.7681 -73.7586 232° Southwest 343 395 16,100 -840 Descending Washington Center
02:28PM 39.7069 -73.8519 230° Southwest 343 395 15,400 -720 Descending Washington Center
02:29PM 39.6481 -73.9475 231° Southwest 343 395 14,800 -540 Descending Washington Center
02:30PM 39.5867 -74.0378 229° Southwest 343 395 14,400 -420 Descending Washington Center
02:31PM 39.5294 -74.1306 231° Southwest 343 395 14,000 -300 Descending Washington Center
02:32PM 39.5225 -74.2464 266° West 310 357 13,800 -720 Descending Washington Center
02:33PM 39.5278 -74.3514 274° West 301 346 12,600 -1,140 Descending Washington Center
02:34PM 39.5289 -74.4481 271° West 287 330 11,600 -1,020 Descending Washington Center
02:36PM 39.5333 -74.6500 272° West 267 307 9,700 -840 Descending Philadelphia TRACON
02:37PM 39.5333 -74.7500 270° West 270 311 9,000 -840 Descending Philadelphia TRACON
02:38PM 39.5500 -74.8333 285° West 256 295 8,100 -1,080 Descending Philadelphia TRACON
02:39PM 39.5667 -74.9167 285° West 258 297 7,000 -1,140 Descending Philadelphia TRACON
02:40PM 39.6000 -75.0000 297° West 254 292 6,000 -1,020 Descending Philadelphia TRACON
02:41PM 39.6333 -75.0833 297° West 253 291 5,000 -1,380 Descending Philadelphia TRACON
02:42PM 39.6833 -75.1333 322° Northwest 251 289 3,300 -1,380 Descending Philadelphia TRACON
02:43PM 39.7500 -75.1833 330° Northwest 248 285 2,300 -900 Descending Philadelphia TRACON
02:44PM 39.8000 -75.2000 346° North 191 220 1,600 -660 Descending Philadelphia TRACON
02:45PM 39.8333 -75.2000 360° North 139 160 1,100 -660 Descending Philadelphia TRACON
02:46PM 39.8667 -75.2167 339° North 136 157 300 -840 Descending Philadelphia TRACON